createdAt,value
2022-11-28T00:01:41.432Z,15.00
2022-11-28T00:04:09.131Z,16.02
2022-11-28T00:06:41.462Z,16.55
2022-11-28T00:09:09.110Z,16.17
2022-11-28T00:11:35.895Z,14.52
2022-11-28T00:14:02.543Z,15.52
2022-11-28T00:16:29.403Z,17.58
2022-11-28T00:18:56.240Z,15.50
2022-11-28T00:21:23.849Z,14.68
2022-11-28T00:23:51.396Z,14.88
2022-11-28T00:26:22.062Z,16.13
2022-11-28T00:28:49.434Z,16.77
2022-11-28T00:31:19.608Z,17.65
2022-11-28T00:33:47.179Z,13.50
2022-11-28T00:36:14.926Z,14.52
2022-11-28T00:38:41.941Z,18.02
2022-11-28T00:41:12.030Z,16.85
2022-11-28T00:43:39.052Z,16.67
2022-11-28T00:46:06.786Z,13.70
2022-11-28T00:48:34.478Z,15.52
2022-11-28T00:51:22.955Z,14.93
2022-11-28T00:53:51.155Z,17.33
2022-11-28T00:56:21.401Z,13.90
2022-11-28T00:58:49.665Z,14.23
2022-11-28T01:01:32.079Z,14.50
2022-11-28T01:04:01.735Z,18.00
2022-11-28T01:06:31.537Z,14.88
2022-11-28T01:09:00.428Z,14.00
2022-11-28T01:11:28.201Z,15.70
2022-11-28T01:13:57.203Z,15.60
2022-11-28T01:16:24.127Z,13.93
2022-11-28T01:18:51.230Z,14.75
2022-11-28T01:21:19.065Z,16.73
2022-11-28T01:23:45.985Z,13.73
2022-11-28T01:26:18.968Z,16.13
2022-11-28T01:28:46.369Z,16.70
2022-11-28T01:31:15.859Z,16.38
2022-11-28T01:33:42.931Z,15.98
2022-11-28T01:36:11.372Z,14.30
2022-11-28T01:38:38.662Z,17.10
2022-11-28T01:41:06.029Z,18.58
2022-11-28T01:43:32.971Z,18.10
2022-11-28T01:45:59.818Z,15.55
2022-11-28T01:48:38.457Z,16.67
2022-11-28T01:53:39.867Z,19.60
2022-11-28T01:56:13.063Z,18.48
2022-11-28T01:58:43.530Z,20.08
2022-11-28T02:01:11.028Z,19.10
2022-11-28T02:03:46.977Z,17.80
2022-11-28T02:06:16.061Z,17.92
2022-11-28T02:08:42.972Z,18.25
2022-11-28T02:11:31.593Z,18.38
2022-11-28T02:14:13.416Z,20.65
2022-11-28T02:17:10.977Z,18.05
2022-11-28T02:20:17.038Z,18.13
2022-11-28T02:23:14.434Z,16.80
2022-11-28T02:25:44.242Z,21.65
2022-11-28T02:28:35.203Z,21.38
2022-11-28T02:31:41.426Z,19.00
2022-11-28T02:34:20.174Z,21.08
2022-11-28T02:37:03.452Z,22.48
2022-11-28T02:40:00.674Z,23.70
2022-11-28T02:42:53.589Z,22.35
2022-11-28T02:45:29.545Z,21.30
2022-11-28T02:48:04.946Z,19.77
2022-11-28T02:50:42.104Z,24.40
2022-11-28T02:53:14.524Z,20.45
2022-11-28T02:55:43.434Z,21.80
2022-11-28T02:58:11.584Z,25.25
2022-11-28T03:00:46.250Z,25.73
2022-11-28T03:03:43.937Z,21.05
2022-11-28T03:06:32.027Z,21.33
2022-11-28T03:09:36.668Z,20.27
2022-11-28T03:12:33.996Z,23.40
2022-11-28T03:15:03.678Z,21.65
2022-11-28T03:17:46.040Z,25.50
2022-11-28T03:20:55.067Z,22.58
2022-11-28T03:23:48.808Z,25.63
2022-11-28T03:26:36.748Z,23.35
2022-11-28T03:29:15.247Z,23.02
2022-11-28T03:31:50.483Z,26.08
2022-11-28T03:34:22.052Z,21.05
2022-11-28T03:37:03.922Z,23.40
2022-11-28T03:39:36.853Z,20.45
2022-11-28T03:42:13.004Z,20.58
2022-11-28T03:45:02.716Z,23.38
2022-11-28T03:47:33.888Z,22.90
2022-11-28T03:50:06.548Z,22.23
2022-11-28T03:52:39.800Z,24.70
2022-11-28T03:55:33.035Z,21.38
2022-11-28T03:58:11.827Z,23.33
2022-11-28T04:01:01.938Z,22.08
2022-11-28T04:03:46.274Z,21.02
2022-11-28T04:06:21.923Z,22.75
2022-11-28T04:09:14.634Z,26.85
2022-11-28T04:11:54.301Z,23.73
2022-11-28T04:14:30.451Z,28.77
2022-11-28T04:17:27.287Z,21.55
2022-11-28T04:20:05.670Z,19.33
2022-11-28T04:22:38.124Z,22.58
2022-11-28T04:25:09.616Z,23.92
2022-11-28T04:27:40.042Z,20.50
2022-11-28T04:30:08.872Z,23.38
2022-11-28T04:32:39.585Z,23.05
2022-11-28T04:35:10.923Z,26.60
2022-11-28T04:37:39.807Z,27.98
2022-11-28T04:40:11.230Z,23.48
2022-11-28T04:42:45.670Z,26.40
2022-11-28T04:45:17.682Z,22.80
2022-11-28T04:47:45.379Z,26.27
2022-11-28T04:50:13.469Z,26.83
2022-11-28T04:52:55.269Z,27.02
2022-11-28T04:55:27.965Z,24.92
2022-11-28T04:58:19.035Z,23.52
2022-11-28T05:00:48.478Z,24.83
2022-11-28T05:03:15.420Z,24.50
2022-11-28T05:05:50.092Z,23.85
2022-11-28T05:08:18.215Z,26.15
2022-11-28T05:10:45.404Z,28.90
2022-11-28T05:13:12.187Z,27.65
2022-11-28T05:15:38.931Z,27.05
2022-11-28T05:18:06.181Z,26.52
2022-11-28T05:20:33.149Z,27.88
2022-11-28T05:22:59.821Z,25.00
2022-11-28T05:25:26.579Z,24.50
2022-11-28T05:27:53.344Z,25.02
2022-11-28T05:30:20.167Z,22.88
2022-11-28T05:32:47.216Z,26.95
2022-11-28T05:35:14.276Z,23.48
2022-11-28T05:37:40.936Z,22.20
2022-11-28T05:40:08.079Z,26.67
2022-11-28T05:42:36.042Z,25.25
2022-11-28T05:45:03.851Z,19.90
2022-11-28T05:47:32.135Z,24.48
2022-11-28T05:49:58.965Z,22.88
2022-11-28T05:52:26.189Z,21.60
2022-11-28T05:54:52.884Z,25.15
2022-11-28T05:57:19.633Z,27.85
2022-11-28T05:59:46.407Z,22.95
2022-11-28T06:02:13.372Z,24.13
2022-11-28T06:04:41.963Z,21.65
2022-11-28T06:07:09.196Z,26.00
2022-11-28T06:09:36.312Z,23.00
2022-11-28T06:12:03.164Z,25.42
2022-11-28T06:14:29.824Z,24.05
2022-11-28T06:16:56.655Z,21.60
2022-11-28T06:19:23.907Z,22.08
2022-11-28T06:21:50.928Z,23.33
2022-11-28T06:24:17.592Z,24.38
2022-11-28T06:26:44.261Z,22.70
2022-11-28T06:29:10.908Z,22.08
2022-11-28T06:31:37.762Z,22.05
2022-11-28T06:34:04.509Z,23.08
2022-11-28T06:36:31.269Z,22.88
2022-11-28T06:38:58.074Z,23.08
2022-11-28T06:41:24.804Z,23.00
2022-11-28T06:43:51.593Z,20.70
2022-11-28T06:46:20.571Z,23.17
2022-11-28T06:48:48.629Z,18.45
2022-11-28T06:51:16.839Z,19.52
2022-11-28T06:53:44.630Z,22.60
2022-11-28T06:56:14.389Z,19.00
2022-11-28T06:58:42.158Z,22.17
2022-11-28T07:01:13.637Z,22.02
2022-11-28T07:03:40.969Z,22.85
2022-11-28T07:06:08.168Z,23.42
2022-11-28T07:08:35.671Z,20.10
2022-11-28T07:11:16.388Z,20.17
2022-11-28T07:13:45.722Z,20.10
2022-11-28T07:16:16.474Z,23.02
2022-11-28T07:18:44.608Z,21.58
2022-11-28T07:21:12.269Z,20.63
2022-11-28T07:23:38.983Z,22.75
2022-11-28T07:26:06.954Z,26.05
2022-11-28T07:28:34.909Z,19.08
2022-11-28T07:31:13.660Z,22.92
2022-11-28T07:33:42.370Z,22.42
2022-11-28T07:36:21.813Z,20.55
2022-11-28T07:38:50.510Z,18.67
2022-11-28T07:41:17.629Z,22.92
2022-11-28T07:43:46.146Z,17.35
2022-11-28T07:46:18.334Z,20.73
2022-11-28T07:48:46.111Z,17.40
2022-11-28T07:51:15.678Z,22.27
2022-11-28T07:53:43.145Z,19.52
2022-11-28T07:56:14.884Z,18.80
2022-11-28T07:58:43.261Z,21.55
2022-11-28T08:01:16.420Z,19.75
2022-11-28T08:03:47.302Z,18.77
2022-11-28T08:06:16.575Z,18.63
2022-11-28T08:08:45.461Z,21.70
2022-11-28T08:11:12.970Z,18.92
2022-11-28T08:13:40.734Z,18.42
2022-11-28T08:16:12.538Z,17.75
2022-11-28T08:18:39.414Z,17.75
2022-11-28T08:21:11.862Z,19.27
2022-11-28T08:23:39.678Z,19.60
2022-11-28T08:26:09.273Z,19.85
2022-11-28T08:28:36.782Z,18.15
2022-11-28T08:31:15.651Z,18.33
2022-11-28T08:33:42.851Z,17.27
2022-11-28T08:36:11.722Z,16.55
2022-11-28T08:38:39.276Z,16.23
2022-11-28T08:41:18.670Z,19.10
2022-11-28T08:43:46.278Z,20.23
2022-11-28T08:46:16.254Z,19.23
2022-11-28T08:48:43.394Z,18.50
2022-11-28T08:51:16.055Z,20.83
2022-11-28T08:53:48.559Z,18.67
2022-11-28T08:56:16.179Z,17.70
2022-11-28T08:58:42.922Z,20.08
2022-11-28T09:01:18.739Z,18.15
2022-11-28T09:03:46.136Z,21.52
2022-11-28T09:06:13.642Z,21.67
2022-11-28T09:08:40.433Z,22.63
2022-11-28T09:11:12.630Z,20.38
2022-11-28T09:13:39.641Z,23.60
2022-11-28T09:16:07.299Z,20.30
2022-11-28T09:18:34.149Z,22.85
2022-11-28T09:21:03.039Z,21.45
2022-11-28T09:23:29.843Z,21.27
2022-11-28T09:25:57.910Z,25.25
2022-11-28T09:28:25.014Z,20.40
2022-11-28T09:31:00.049Z,24.35
2022-11-28T09:33:26.828Z,20.00
2022-11-28T09:35:55.470Z,22.63
2022-11-28T09:38:23.016Z,23.98
2022-11-28T09:40:50.169Z,17.98
2022-11-28T09:43:26.801Z,24.20
2022-11-28T09:45:56.114Z,20.92
2022-11-28T09:48:36.844Z,22.30
2022-11-28T09:51:28.573Z,23.33
2022-11-28T09:54:30.778Z,22.02
2022-11-28T09:56:58.865Z,20.20
2022-11-28T09:59:28.582Z,24.27
2022-11-28T10:02:15.505Z,21.58
2022-11-28T10:04:52.754Z,27.45
2022-11-28T10:07:43.369Z,23.17
2022-11-28T10:10:34.679Z,22.92
2022-11-28T10:13:29.660Z,22.63
2022-11-28T10:15:59.492Z,20.92
2022-11-28T10:18:43.390Z,25.23
2022-11-28T10:21:35.427Z,24.52
2022-11-28T10:24:13.760Z,25.20
2022-11-28T10:29:32.010Z,22.23
2022-11-28T10:32:02.248Z,22.98
2022-11-28T10:34:34.690Z,29.30
2022-11-28T10:37:10.880Z,23.20
2022-11-28T10:39:44.066Z,23.17
2022-11-28T10:42:23.112Z,23.23
2022-11-28T10:45:17.415Z,22.27
2022-11-28T10:48:29.555Z,26.10
2022-11-28T10:51:17.681Z,24.13
2022-11-28T10:53:52.702Z,22.52
2022-11-28T10:57:05.895Z,23.45
2022-11-28T11:00:06.668Z,24.23
2022-11-28T11:02:46.504Z,28.38
2022-11-28T11:05:31.534Z,24.92
2022-11-28T11:08:22.306Z,24.23
2022-11-28T11:10:50.861Z,24.63
2022-11-28T11:13:24.116Z,24.90
2022-11-28T11:16:04.226Z,22.17
2022-11-28T11:18:58.628Z,24.90
2022-11-28T11:21:27.009Z,22.15
2022-11-28T11:24:16.027Z,25.08
2022-11-28T11:26:46.022Z,22.73
2022-11-28T11:29:40.198Z,21.92
2022-11-28T11:32:21.642Z,22.80
2022-11-28T11:34:48.853Z,21.40
2022-11-28T11:37:37.418Z,23.42
2022-11-28T11:40:29.411Z,25.08
2022-11-28T11:43:00.369Z,25.02
2022-11-28T11:45:31.422Z,22.42
2022-11-28T11:47:58.425Z,23.60
2022-11-28T11:50:27.977Z,21.60
2022-11-28T11:53:27.151Z,23.33
2022-11-28T11:55:55.790Z,22.65
2022-11-28T11:58:27.398Z,22.73
2022-11-28T12:00:57.369Z,21.80
2022-11-28T12:03:40.698Z,23.40
2022-11-28T12:06:17.501Z,21.38
2022-11-28T12:08:53.837Z,22.60
2022-11-28T12:11:27.758Z,25.10
2022-11-28T12:13:56.198Z,24.67
2022-11-28T12:16:53.184Z,23.60
2022-11-28T12:19:38.732Z,26.40
2022-11-28T12:22:17.448Z,22.23
2022-11-28T12:24:58.448Z,22.98
2022-11-28T12:27:43.337Z,25.33
2022-11-28T12:30:47.669Z,25.90
2022-11-28T12:33:39.279Z,22.20
2022-11-28T12:36:26.141Z,21.85
2022-11-28T12:39:14.934Z,25.13
2022-11-28T12:42:00.991Z,26.52
2022-11-28T12:45:05.453Z,27.05
2022-11-28T12:47:48.613Z,27.73
2022-11-28T12:50:31.777Z,24.75
2022-11-28T12:53:41.103Z,27.10
2022-11-28T12:56:30.103Z,26.83
2022-11-28T12:59:40.101Z,25.75
2022-11-28T13:02:19.406Z,27.50
2022-11-28T13:04:56.991Z,30.58
2022-11-28T13:07:26.676Z,26.70
2022-11-28T13:09:59.734Z,25.98
2022-11-28T13:12:37.041Z,26.55
2022-11-28T13:15:17.422Z,28.80
2022-11-28T13:17:52.660Z,27.90
2022-11-28T13:20:29.398Z,30.88
2022-11-28T13:23:14.556Z,29.40
2022-11-28T13:26:00.572Z,30.75
2022-11-28T13:28:42.481Z,27.25
2022-11-28T13:31:36.320Z,26.77
2022-11-28T13:34:04.143Z,31.25
2022-11-28T13:40:00.047Z,29.08
2022-11-28T13:43:02.354Z,28.83
2022-11-28T13:45:30.067Z,29.40
2022-11-28T13:48:00.279Z,30.75
2022-11-28T13:50:41.256Z,30.80
2022-11-28T13:53:10.325Z,31.40
2022-11-28T13:55:37.327Z,27.77
2022-11-28T13:58:49.556Z,32.83
2022-11-28T14:01:18.999Z,31.55
2022-11-28T14:03:50.016Z,34.92
2022-11-28T14:06:23.747Z,35.47
2022-11-28T14:09:16.542Z,39.05
2022-11-28T14:12:11.542Z,34.08
2022-11-28T14:14:50.461Z,37.97
2022-11-28T14:17:54.772Z,33.70
2022-11-28T14:20:54.152Z,35.33
2022-11-28T14:23:32.902Z,34.17
2022-11-28T14:25:59.859Z,36.38
2022-11-28T14:28:36.877Z,36.20
2022-11-28T14:31:09.937Z,36.97
2022-11-28T14:33:40.765Z,35.78
2022-11-28T14:36:33.920Z,34.70
2022-11-28T14:39:24.602Z,34.72
2022-11-28T14:42:08.212Z,38.10
2022-11-28T14:44:54.659Z,33.63
2022-11-28T14:47:21.797Z,35.47
2022-11-28T14:49:49.617Z,32.75
2022-11-28T14:52:37.674Z,37.03
2022-11-28T14:55:17.678Z,34.08
2022-11-28T14:57:44.515Z,31.10
2022-11-28T15:00:18.028Z,31.08
2022-11-28T15:02:54.826Z,29.75
2022-11-28T15:05:36.426Z,30.83
2022-11-28T15:08:15.481Z,30.50
2022-11-28T15:11:04.844Z,32.47
2022-11-28T15:14:09.809Z,30.50
2022-11-28T15:16:48.420Z,33.47
2022-11-28T15:19:20.152Z,35.28
2022-11-28T15:21:49.034Z,32.50
2022-11-28T15:24:37.250Z,31.23
2022-11-28T15:27:06.904Z,33.72
2022-11-28T15:29:34.292Z,33.90
2022-11-28T15:32:02.000Z,30.58
2022-11-28T15:34:34.185Z,31.10
2022-11-28T15:37:04.410Z,31.63
2022-11-28T15:39:39.965Z,29.33
2022-11-28T15:42:16.614Z,32.65
2022-11-28T15:44:43.996Z,32.38
2022-11-28T15:47:20.414Z,31.20
2022-11-28T15:49:59.058Z,32.65
2022-11-28T15:52:26.059Z,28.60
2022-11-28T15:54:52.830Z,31.20
2022-11-28T15:57:25.959Z,28.77
2022-11-28T15:59:53.113Z,30.50
2022-11-28T16:02:33.973Z,28.00
2022-11-28T16:05:21.898Z,30.95
2022-11-28T16:07:52.273Z,30.20
2022-11-28T16:10:26.938Z,30.30
2022-11-28T16:13:01.944Z,27.65
2022-11-28T16:15:30.005Z,30.17
2022-11-28T16:17:57.120Z,29.50
2022-11-28T16:20:33.127Z,28.75
2022-11-28T16:23:20.856Z,29.30
2022-11-28T16:26:07.410Z,32.65
2022-11-28T16:28:39.747Z,29.08
2022-11-28T16:31:19.192Z,29.17
2022-11-28T16:33:47.929Z,29.05
2022-11-28T16:36:17.955Z,28.55
2022-11-28T16:38:47.072Z,29.90
2022-11-28T16:41:22.366Z,35.45
2022-11-28T16:43:55.759Z,32.30
2022-11-28T16:46:25.360Z,33.30
2022-11-28T16:49:02.459Z,30.00
2022-11-28T16:51:30.573Z,32.03
2022-11-28T16:53:59.622Z,31.42
2022-11-28T16:56:30.114Z,33.97
2022-11-28T16:59:12.203Z,33.08
2022-11-28T17:01:40.415Z,28.20
2022-11-28T17:04:18.581Z,33.78
2022-11-28T17:06:45.295Z,30.88
2022-11-28T17:09:12.832Z,31.52
2022-11-28T17:11:55.013Z,30.98
2022-11-28T17:14:21.782Z,32.30
2022-11-28T17:16:48.585Z,30.23
2022-11-28T17:19:15.385Z,36.00
2022-11-28T17:21:54.476Z,30.98
2022-11-28T17:24:26.954Z,32.05
2022-11-28T17:26:54.394Z,33.38
2022-11-28T17:29:21.836Z,30.38
2022-11-28T17:31:49.556Z,33.42
2022-11-28T17:34:18.896Z,32.78
2022-11-28T17:36:45.926Z,33.67
2022-11-28T17:39:12.607Z,31.67
2022-11-28T17:41:40.090Z,32.65
2022-11-28T17:44:12.436Z,33.15
2022-11-28T17:46:39.175Z,31.13
2022-11-28T17:49:05.916Z,33.30
2022-11-28T17:51:32.627Z,36.10
2022-11-28T17:53:59.317Z,30.48
2022-11-28T17:56:26.960Z,34.08
2022-11-28T17:58:53.791Z,35.50
2022-11-28T18:01:26.679Z,30.67
2022-11-28T18:03:53.570Z,34.55
2022-11-28T18:06:22.644Z,29.02
2022-11-28T18:08:53.198Z,34.78
2022-11-28T18:11:20.863Z,36.70
2022-11-28T18:13:47.587Z,32.53
2022-11-28T18:16:17.286Z,33.22
2022-11-28T18:18:44.625Z,32.97
2022-11-28T18:21:12.324Z,33.53
2022-11-28T18:23:40.421Z,34.40
2022-11-28T18:26:08.537Z,33.13
2022-11-28T18:28:35.589Z,33.58
2022-11-28T18:31:10.335Z,33.58
2022-11-28T18:33:37.897Z,34.97
2022-11-28T18:36:15.510Z,35.80
2022-11-28T18:38:42.361Z,33.92
2022-11-28T18:41:12.410Z,37.38
2022-11-28T18:43:39.301Z,34.72
2022-11-28T18:46:07.675Z,34.80
2022-11-28T18:48:37.673Z,35.92
2022-11-28T18:51:23.118Z,35.35
2022-11-28T18:53:53.428Z,35.03
2022-11-28T18:56:21.729Z,35.42
2022-11-28T18:58:54.751Z,35.17
2022-11-28T19:01:31.684Z,33.33
2022-11-28T19:04:11.900Z,37.53
2022-11-28T19:06:40.808Z,36.55
2022-11-28T19:09:11.107Z,39.30
2022-11-28T19:11:40.133Z,39.72
2022-11-28T19:14:11.659Z,41.63
2022-11-28T19:16:39.196Z,35.72
2022-11-28T19:19:06.683Z,39.42
2022-11-28T19:21:36.907Z,36.53
2022-11-28T19:24:11.221Z,43.25
2022-11-28T19:26:39.004Z,40.60
2022-11-28T19:29:06.570Z,37.55
2022-11-28T19:31:36.029Z,39.92
2022-11-28T19:34:10.296Z,39.63
2022-11-28T19:36:48.434Z,42.30
2022-11-28T19:39:18.071Z,42.70
2022-11-28T19:41:45.390Z,35.72
2022-11-28T19:44:13.515Z,38.05
2022-11-28T19:46:40.493Z,39.90
2022-11-28T19:49:10.740Z,44.55
2022-11-28T19:51:37.440Z,39.70
2022-11-28T19:54:04.362Z,39.60
2022-11-28T19:56:32.350Z,43.42
2022-11-28T19:58:59.673Z,40.28
2022-11-28T20:01:26.481Z,41.90
2022-11-28T20:03:53.819Z,39.60
2022-11-28T20:06:23.484Z,41.78
2022-11-28T20:08:51.859Z,38.97
2022-11-28T20:11:22.341Z,39.03
2022-11-28T20:13:49.969Z,41.90
2022-11-28T20:16:17.833Z,42.55
2022-11-28T20:18:45.586Z,42.42
2022-11-28T20:21:15.302Z,44.55
2022-11-28T20:23:44.499Z,45.20
2022-11-28T20:26:12.701Z,43.08
2022-11-28T20:28:41.001Z,42.47
2022-11-28T20:31:35.714Z,42.95
2022-11-28T20:34:02.947Z,43.22
2022-11-28T20:36:31.374Z,44.90
2022-11-28T20:38:59.378Z,43.78
2022-11-28T20:41:28.502Z,43.08
2022-11-28T20:43:55.293Z,45.67
2022-11-28T20:46:30.398Z,46.13
2022-11-28T20:48:59.475Z,46.67
2022-11-28T20:51:27.726Z,42.92
2022-11-28T20:53:56.006Z,47.95
2022-11-28T20:56:24.963Z,45.40
2022-11-28T20:58:52.394Z,44.38
2022-11-28T21:01:22.479Z,48.00
2022-11-28T21:03:51.297Z,47.53
2022-11-28T21:06:18.796Z,46.33
2022-11-28T21:08:46.154Z,47.80
2022-11-28T21:11:50.011Z,48.58
2022-11-28T21:14:08.833Z,49.22
2022-11-28T21:16:35.809Z,51.00
2022-11-28T21:19:08.942Z,48.67
2022-11-28T21:21:38.994Z,45.05
2022-11-28T21:24:12.700Z,47.15
2022-11-28T21:26:43.190Z,50.53
2022-11-28T21:29:13.424Z,55.33
2022-11-28T21:31:42.277Z,49.40
2022-11-28T21:34:14.197Z,48.45
2022-11-28T21:39:11.560Z,50.10
2022-11-28T21:41:38.386Z,50.35
2022-11-28T21:44:05.206Z,47.17
2022-11-28T21:46:32.034Z,50.95
2022-11-28T21:48:58.751Z,53.33
2022-11-28T21:51:28.452Z,54.63
2022-11-28T21:53:57.461Z,47.97
2022-11-28T21:56:25.551Z,49.90
2022-11-28T21:58:52.702Z,48.88
2022-11-28T22:01:21.305Z,54.40
2022-11-28T22:03:48.699Z,55.22
2022-11-28T22:06:16.913Z,50.15
2022-11-28T22:08:44.595Z,51.28
2022-11-28T22:11:13.263Z,55.50
2022-11-28T22:13:45.960Z,48.25
2022-11-28T22:16:24.351Z,49.88
2022-11-28T22:18:53.735Z,49.42
2022-11-28T22:21:50.559Z,52.25
2022-11-28T22:24:08.769Z,49.38
2022-11-28T22:26:35.557Z,55.15
2022-11-28T22:29:03.962Z,53.45
2022-11-28T22:31:31.379Z,52.97
2022-11-28T22:33:58.101Z,55.08
2022-11-28T22:36:24.799Z,54.38
2022-11-28T22:38:55.893Z,52.17
2022-11-28T22:41:28.441Z,47.75
2022-11-28T22:44:01.530Z,50.38
2022-11-28T22:46:28.918Z,50.80
2022-11-28T22:48:56.095Z,49.30
2022-11-28T22:51:25.422Z,55.90
2022-11-28T22:54:02.424Z,48.83
2022-11-28T22:56:31.819Z,51.70
2022-11-28T22:58:59.080Z,51.50
2022-11-28T23:01:29.236Z,53.38
2022-11-28T23:03:56.701Z,51.80
2022-11-28T23:06:34.816Z,52.80
2022-11-28T23:09:06.014Z,46.67
2022-11-28T23:11:34.613Z,51.13
2022-11-28T23:14:02.522Z,51.08
2022-11-28T23:16:31.811Z,48.97
2022-11-28T23:19:01.492Z,47.00
2022-11-28T23:21:34.626Z,47.25
2022-11-28T23:24:01.359Z,48.67
2022-11-28T23:26:30.850Z,48.92
2022-11-28T23:29:02.060Z,50.25
2022-11-28T23:31:31.073Z,45.50
2022-11-28T23:33:58.759Z,47.90
2022-11-28T23:36:45.823Z,43.95
2022-11-28T23:39:18.219Z,46.50
2022-11-28T23:41:45.312Z,50.28
2022-11-28T23:44:13.117Z,48.03
2022-11-28T23:46:40.719Z,49.67
2022-11-28T23:49:07.507Z,47.78
2022-11-28T23:51:34.639Z,45.15
2022-11-28T23:54:01.610Z,50.53
2022-11-28T23:56:31.316Z,47.17
2022-11-28T23:59:01.175Z,50.83
